sensor_id;sensor_type;location;lat;lon;timestamp;temperature;humidity
11246;DHT22;59870;50.106;8.580;2023-08-17T00:02:24;23.70;99.90
11246;DHT22;59870;50.106;8.580;2023-08-17T00:04:51;23.70;99.90
11246;DHT22;59870;50.106;8.580;2023-08-17T00:07:18;24.00;99.90
11246;DHT22;59870;50.106;8.580;2023-08-17T00:09:46;23.70;99.90
11246;DHT22;59870;50.106;8.580;2023-08-17T00:12:13;23.60;99.90
11246;DHT22;59870;50.106;8.580;2023-08-17T00:14:40;23.80;99.90
11246;DHT22;59870;50.106;8.580;2023-08-17T00:17:08;23.90;99.90
11246;DHT22;59870;50.106;8.580;2023-08-17T00:19:36;23.70;99.90
11246;DHT22;59870;50.106;8.580;2023-08-17T00:22:03;23.60;99.90
11246;DHT22;59870;50.106;8.580;2023-08-17T00:24:31;24.00;99.90
11246;DHT22;59870;50.106;8.580;2023-08-17T00:26:58;23.70;99.90
11246;DHT22;59870;50.106;8.580;2023-08-17T00:29:26;23.70;99.90
11246;DHT22;59870;50.106;8.580;2023-08-17T00:31:53;23.70;99.90
11246;DHT22;59870;50.106;8.580;2023-08-17T00:34:21;23.60;99.90
11246;DHT22;59870;50.106;8.580;2023-08-17T00:36:48;23.70;99.90
11246;DHT22;59870;50.106;8.580;2023-08-17T00:39:15;23.80;99.90
11246;DHT22;59870;50.106;8.580;2023-08-17T00:41:43;23.60;99.90
11246;DHT22;59870;50.106;8.580;2023-08-17T00:44:10;23.60;99.90
11246;DHT22;59870;50.106;8.580;2023-08-17T00:46:38;23.60;99.90
11246;DHT22;59870;50.106;8.580;2023-08-17T00:49:06;23.50;99.90
11246;DHT22;59870;50.106;8.580;2023-08-17T00:51:34;23.50;99.90
11246;DHT22;59870;50.106;8.580;2023-08-17T00:54:02;23.50;99.90
11246;DHT22;59870;50.106;8.580;2023-08-17T00:56:31;23.50;99.90
11246;DHT22;59870;50.106;8.580;2023-08-17T00:58:58;23.50;99.90
11246;DHT22;59870;50.106;8.580;2023-08-17T01:01:26;23.50;99.90
11246;DHT22;59870;50.106;8.580;2023-08-17T01:03:53;23.50;99.90
11246;DHT22;59870;50.106;8.580;2023-08-17T01:06:21;23.50;99.90
11246;DHT22;59870;50.106;8.580;2023-08-17T01:08:48;23.40;99.90
11246;DHT22;59870;50.106;8.580;2023-08-17T01:11:22;23.50;99.90
11246;DHT22;59870;50.106;8.580;2023-08-17T01:16:31;23.40;99.90
11246;DHT22;59870;50.106;8.580;2023-08-17T01:19:00;23.40;99.90
11246;DHT22;59870;50.106;8.580;2023-08-17T01:21:37;23.40;99.90
11246;DHT22;59870;50.106;8.580;2023-08-17T01:24:08;23.30;99.90
11246;DHT22;59870;50.106;8.580;2023-08-17T01:26:35;23.30;99.90
11246;DHT22;59870;50.106;8.580;2023-08-17T01:29:03;23.60;99.90
11246;DHT22;59870;50.106;8.580;2023-08-17T01:31:35;23.30;99.90
11246;DHT22;59870;50.106;8.580;2023-08-17T01:34:07;23.30;99.90
11246;DHT22;59870;50.106;8.580;2023-08-17T01:36:43;23.20;99.90
11246;DHT22;59870;50.106;8.580;2023-08-17T01:39:13;23.30;99.90
11246;DHT22;59870;50.106;8.580;2023-08-17T01:41:44;23.40;99.90
11246;DHT22;59870;50.106;8.580;2023-08-17T01:44:13;23.10;99.90
11246;DHT22;59870;50.106;8.580;2023-08-17T01:46:41;23.10;99.90
11246;DHT22;59870;50.106;8.580;2023-08-17T01:49:09;23.40;99.90
11246;DHT22;59870;50.106;8.580;2023-08-17T01:51:37;23.10;99.90
11246;DHT22;59870;50.106;8.580;2023-08-17T01:54:05;23.10;99.90
11246;DHT22;59870;50.106;8.580;2023-08-17T01:56:33;23.00;99.90
11246;DHT22;59870;50.106;8.580;2023-08-17T01:59:00;23.00;99.90
11246;DHT22;59870;50.106;8.580;2023-08-17T02:01:27;23.00;99.90
11246;DHT22;59870;50.106;8.580;2023-08-17T02:03:55;23.00;99.90
11246;DHT22;59870;50.106;8.580;2023-08-17T02:06:23;23.00;99.90
11246;DHT22;59870;50.106;8.580;2023-08-17T02:08:50;22.90;99.90
11246;DHT22;59870;50.106;8.580;2023-08-17T02:11:19;22.90;99.90
11246;DHT22;59870;50.106;8.580;2023-08-17T02:13:46;22.90;99.90
11246;DHT22;59870;50.106;8.580;2023-08-17T02:16:13;22.90;99.90
11246;DHT22;59870;50.106;8.580;2023-08-17T02:18:41;22.90;99.90
11246;DHT22;59870;50.106;8.580;2023-08-17T02:21:08;22.90;99.90
11246;DHT22;59870;50.106;8.580;2023-08-17T02:23:39;23.20;99.90
11246;DHT22;59870;50.106;8.580;2023-08-17T02:26:06;22.80;99.90
11246;DHT22;59870;50.106;8.580;2023-08-17T02:28:34;22.80;99.90
11246;DHT22;59870;50.106;8.580;2023-08-17T02:31:01;22.80;99.90
11246;DHT22;59870;50.106;8.580;2023-08-17T02:33:29;22.70;99.90
11246;DHT22;59870;50.106;8.580;2023-08-17T02:35:56;22.70;99.90
11246;DHT22;59870;50.106;8.580;2023-08-17T02:38:24;22.90;99.90
11246;DHT22;59870;50.106;8.580;2023-08-17T02:40:51;22.70;99.90
11246;DHT22;59870;50.106;8.580;2023-08-17T02:43:19;22.60;99.90
11246;DHT22;59870;50.106;8.580;2023-08-17T02:45:47;22.60;99.90
11246;DHT22;59870;50.106;8.580;2023-08-17T02:48:14;22.60;99.90
11246;DHT22;59870;50.106;8.580;2023-08-17T02:50:41;22.70;99.90
11246;DHT22;59870;50.106;8.580;2023-08-17T02:53:10;22.70;99.90
11246;DHT22;59870;50.106;8.580;2023-08-17T02:55:37;22.70;99.90
11246;DHT22;59870;50.106;8.580;2023-08-17T02:58:05;22.60;99.90
11246;DHT22;59870;50.106;8.580;2023-08-17T03:00:32;22.60;99.90
11246;DHT22;59870;50.106;8.580;2023-08-17T03:03:00;22.50;99.90
11246;DHT22;59870;50.106;8.580;2023-08-17T03:05:27;22.50;99.90
11246;DHT22;59870;50.106;8.580;2023-08-17T03:07:54;22.50;99.90
11246;DHT22;59870;50.106;8.580;2023-08-17T03:10:22;22.40;99.90
11246;DHT22;59870;50.106;8.580;2023-08-17T03:12:52;22.40;99.90
11246;DHT22;59870;50.106;8.580;2023-08-17T03:15:19;22.40;99.90
11246;DHT22;59870;50.106;8.580;2023-08-17T03:17:47;22.40;99.90
11246;DHT22;59870;50.106;8.580;2023-08-17T03:20:14;22.40;99.90
11246;DHT22;59870;50.106;8.580;2023-08-17T03:22:42;22.40;99.90
11246;DHT22;59870;50.106;8.580;2023-08-17T03:25:09;22.30;99.90
11246;DHT22;59870;50.106;8.580;2023-08-17T03:27:37;22.50;99.90
11246;DHT22;59870;50.106;8.580;2023-08-17T03:30:05;22.30;99.90
11246;DHT22;59870;50.106;8.580;2023-08-17T03:32:33;22.30;99.90
11246;DHT22;59870;50.106;8.580;2023-08-17T03:35:00;22.30;99.90
11246;DHT22;59870;50.106;8.580;2023-08-17T03:37:30;22.30;99.90
11246;DHT22;59870;50.106;8.580;2023-08-17T03:39:57;22.20;99.90
11246;DHT22;59870;50.106;8.580;2023-08-17T03:42:25;22.20;99.90
11246;DHT22;59870;50.106;8.580;2023-08-17T03:44:52;22.20;99.90
11246;DHT22;59870;50.106;8.580;2023-08-17T03:47:20;22.20;99.90
11246;DHT22;59870;50.106;8.580;2023-08-17T03:49:47;22.30;99.90
11246;DHT22;59870;50.106;8.580;2023-08-17T03:52:14;22.20;99.90
11246;DHT22;59870;50.106;8.580;2023-08-17T03:54:42;22.10;99.90
11246;DHT22;59870;50.106;8.580;2023-08-17T03:57:09;22.10;99.90
11246;DHT22;59870;50.106;8.580;2023-08-17T03:59:37;22.20;99.90
11246;DHT22;59870;50.106;8.580;2023-08-17T04:02:04;22.20;99.90
11246;DHT22;59870;50.106;8.580;2023-08-17T04:04:31;22.20;99.90
11246;DHT22;59870;50.106;8.580;2023-08-17T04:06:59;22.10;99.90
11246;DHT22;59870;50.106;8.580;2023-08-17T04:09:26;22.10;99.90
11246;DHT22;59870;50.106;8.580;2023-08-17T04:11:54;22.00;99.90
11246;DHT22;59870;50.106;8.580;2023-08-17T04:14:23;22.10;99.90
11246;DHT22;59870;50.106;8.580;2023-08-17T04:16:51;22.00;99.90
11246;DHT22;59870;50.106;8.580;2023-08-17T04:19:19;22.00;99.90
11246;DHT22;59870;50.106;8.580;2023-08-17T04:21:46;22.00;99.90
11246;DHT22;59870;50.106;8.580;2023-08-17T04:24:14;22.00;99.90
11246;DHT22;59870;50.106;8.580;2023-08-17T04:26:42;22.00;99.90
11246;DHT22;59870;50.106;8.580;2023-08-17T04:29:10;22.00;99.90
11246;DHT22;59870;50.106;8.580;2023-08-17T04:31:39;22.00;99.90
11246;DHT22;59870;50.106;8.580;2023-08-17T04:34:07;22.30;99.90
11246;DHT22;59870;50.106;8.580;2023-08-17T04:36:35;21.90;99.90
11246;DHT22;59870;50.106;8.580;2023-08-17T04:39:04;21.90;99.90
11246;DHT22;59870;50.106;8.580;2023-08-17T04:41:32;21.90;99.90
11246;DHT22;59870;50.106;8.580;2023-08-17T04:44:01;21.90;99.90
11246;DHT22;59870;50.106;8.580;2023-08-17T04:46:30;21.90;99.90
11246;DHT22;59870;50.106;8.580;2023-08-17T04:48:57;21.90;99.90
11246;DHT22;59870;50.106;8.580;2023-08-17T04:51:26;21.90;99.90
11246;DHT22;59870;50.106;8.580;2023-08-17T04:53:53;21.80;99.90
11246;DHT22;59870;50.106;8.580;2023-08-17T04:56:21;21.90;99.90
11246;DHT22;59870;50.106;8.580;2023-08-17T04:58:49;21.90;99.90
11246;DHT22;59870;50.106;8.580;2023-08-17T05:01:17;21.90;99.90
11246;DHT22;59870;50.106;8.580;2023-08-17T05:03:45;21.90;99.90
11246;DHT22;59870;50.106;8.580;2023-08-17T05:06:13;22.10;99.90
11246;DHT22;59870;50.106;8.580;2023-08-17T05:08:41;21.90;99.90
11246;DHT22;59870;50.106;8.580;2023-08-17T05:11:09;21.90;99.90
11246;DHT22;59870;50.106;8.580;2023-08-17T05:13:36;21.90;99.90
11246;DHT22;59870;50.106;8.580;2023-08-17T05:16:05;21.90;99.90
11246;DHT22;59870;50.106;8.580;2023-08-17T05:18:32;22.00;99.90
11246;DHT22;59870;50.106;8.580;2023-08-17T05:21:00;22.00;99.90
11246;DHT22;59870;50.106;8.580;2023-08-17T05:23:29;22.00;99.90
11246;DHT22;59870;50.106;8.580;2023-08-17T05:25:56;22.30;99.90
11246;DHT22;59870;50.106;8.580;2023-08-17T05:28:24;22.10;99.90
11246;DHT22;59870;50.106;8.580;2023-08-17T05:30:51;22.10;99.90
11246;DHT22;59870;50.106;8.580;2023-08-17T05:33:21;22.20;99.90
11246;DHT22;59870;50.106;8.580;2023-08-17T05:35:54;22.20;99.90
11246;DHT22;59870;50.106;8.580;2023-08-17T05:38:21;22.30;99.90
11246;DHT22;59870;50.106;8.580;2023-08-17T05:40:57;22.30;99.90
11246;DHT22;59870;50.106;8.580;2023-08-17T05:43:25;22.40;99.90
11246;DHT22;59870;50.106;8.580;2023-08-17T05:45:54;22.50;99.90
11246;DHT22;59870;50.106;8.580;2023-08-17T05:48:23;22.50;99.90
11246;DHT22;59870;50.106;8.580;2023-08-17T05:50:51;22.60;99.90
11246;DHT22;59870;50.106;8.580;2023-08-17T05:53:19;22.70;99.90
11246;DHT22;59870;50.106;8.580;2023-08-17T05:55:46;22.70;99.90
11246;DHT22;59870;50.106;8.580;2023-08-17T05:58:14;22.90;99.90
11246;DHT22;59870;50.106;8.580;2023-08-17T06:00:42;22.90;99.90
11246;DHT22;59870;50.106;8.580;2023-08-17T06:03:09;23.30;99.90
11246;DHT22;59870;50.106;8.580;2023-08-17T06:05:38;23.00;99.90
11246;DHT22;59870;50.106;8.580;2023-08-17T06:08:07;23.20;99.90
11246;DHT22;59870;50.106;8.580;2023-08-17T06:10:35;23.60;99.90
11246;DHT22;59870;50.106;8.580;2023-08-17T06:13:03;23.40;99.90
11246;DHT22;59870;50.106;8.580;2023-08-17T06:15:31;23.50;99.90
11246;DHT22;59870;50.106;8.580;2023-08-17T06:17:58;23.90;99.90
11246;DHT22;59870;50.106;8.580;2023-08-17T06:20:25;23.60;99.90
11246;DHT22;59870;50.106;8.580;2023-08-17T06:22:53;23.70;99.90
11246;DHT22;59870;50.106;8.580;2023-08-17T06:25:20;23.50;99.90
11246;DHT22;59870;50.106;8.580;2023-08-17T06:27:51;23.70;99.90
11246;DHT22;59870;50.106;8.580;2023-08-17T06:30:19;23.60;99.90
11246;DHT22;59870;50.106;8.580;2023-08-17T06:32:46;23.60;99.90
11246;DHT22;59870;50.106;8.580;2023-08-17T06:35:14;23.80;99.90
11246;DHT22;59870;50.106;8.580;2023-08-17T06:37:42;23.60;99.90
11246;DHT22;59870;50.106;8.580;2023-08-17T06:40:09;23.50;99.90
11246;DHT22;59870;50.106;8.580;2023-08-17T06:42:37;23.60;99.90
11246;DHT22;59870;50.106;8.580;2023-08-17T06:45:05;23.60;99.90
11246;DHT22;59870;50.106;8.580;2023-08-17T06:47:33;23.50;99.90
11246;DHT22;59870;50.106;8.580;2023-08-17T06:50:00;23.40;99.90
11246;DHT22;59870;50.106;8.580;2023-08-17T06:52:28;23.30;99.90
11246;DHT22;59870;50.106;8.580;2023-08-17T06:54:55;23.20;99.90
11246;DHT22;59870;50.106;8.580;2023-08-17T06:57:23;23.20;99.90
11246;DHT22;59870;50.106;8.580;2023-08-17T06:59:51;23.10;99.90
11246;DHT22;59870;50.106;8.580;2023-08-17T07:02:20;23.10;99.90
11246;DHT22;59870;50.106;8.580;2023-08-17T07:04:47;23.10;99.90
11246;DHT22;59870;50.106;8.580;2023-08-17T07:07:15;23.10;99.90
11246;DHT22;59870;50.106;8.580;2023-08-17T07:09:42;23.10;99.90
11246;DHT22;59870;50.106;8.580;2023-08-17T07:12:10;23.50;99.90
11246;DHT22;59870;50.106;8.580;2023-08-17T07:14:37;23.20;99.90
11246;DHT22;59870;50.106;8.580;2023-08-17T07:17:05;23.20;99.90
11246;DHT22;59870;50.106;8.580;2023-08-17T07:19:32;23.20;99.90
11246;DHT22;59870;50.106;8.580;2023-08-17T07:22:20;23.20;99.90
11246;DHT22;59870;50.106;8.580;2023-08-17T07:24:47;23.30;99.90
11246;DHT22;59870;50.106;8.580;2023-08-17T07:27:14;23.40;99.90
11246;DHT22;59870;50.106;8.580;2023-08-17T07:29:42;23.70;99.90
11246;DHT22;59870;50.106;8.580;2023-08-17T07:32:09;23.60;99.90
11246;DHT22;59870;50.106;8.580;2023-08-17T07:34:37;23.50;99.90
11246;DHT22;59870;50.106;8.580;2023-08-17T07:37:04;23.50;99.90
11246;DHT22;59870;50.106;8.580;2023-08-17T07:39:33;23.50;99.90
11246;DHT22;59870;50.106;8.580;2023-08-17T07:42:01;23.50;99.90
11246;DHT22;59870;50.106;8.580;2023-08-17T07:44:28;23.50;99.90
11246;DHT22;59870;50.106;8.580;2023-08-17T07:46:58;23.50;99.90
11246;DHT22;59870;50.106;8.580;2023-08-17T07:49:28;23.50;99.90
11246;DHT22;59870;50.106;8.580;2023-08-17T07:51:59;23.50;99.90
11246;DHT22;59870;50.106;8.580;2023-08-17T07:54:27;23.50;99.90
11246;DHT22;59870;50.106;8.580;2023-08-17T07:56:55;23.50;99.90
11246;DHT22;59870;50.106;8.580;2023-08-17T07:59:22;23.50;99.90
11246;DHT22;59870;50.106;8.580;2023-08-17T08:01:49;23.60;99.90
11246;DHT22;59870;50.106;8.580;2023-08-17T08:04:17;23.70;99.90
11246;DHT22;59870;50.106;8.580;2023-08-17T08:06:44;23.80;99.90
11246;DHT22;59870;50.106;8.580;2023-08-17T08:09:12;23.80;99.90
11246;DHT22;59870;50.106;8.580;2023-08-17T08:11:39;23.90;99.90
11246;DHT22;59870;50.106;8.580;2023-08-17T08:14:06;24.00;99.90
11246;DHT22;59870;50.106;8.580;2023-08-17T08:16:34;24.10;99.90
11246;DHT22;59870;50.106;8.580;2023-08-17T08:19:02;24.30;99.90
11246;DHT22;59870;50.106;8.580;2023-08-17T08:21:29;24.20;99.90
11246;DHT22;59870;50.106;8.580;2023-08-17T08:23:57;24.30;99.90
11246;DHT22;59870;50.106;8.580;2023-08-17T08:26:24;24.40;99.90
11246;DHT22;59870;50.106;8.580;2023-08-17T08:28:52;24.50;99.90
11246;DHT22;59870;50.106;8.580;2023-08-17T08:31:19;24.70;99.90
11246;DHT22;59870;50.106;8.580;2023-08-17T08:33:47;24.90;99.90
11246;DHT22;59870;50.106;8.580;2023-08-17T08:36:14;25.20;99.70
11246;DHT22;59870;50.106;8.580;2023-08-17T08:38:41;25.40;99.20
11246;DHT22;59870;50.106;8.580;2023-08-17T08:41:10;25.50;99.10
11246;DHT22;59870;50.106;8.580;2023-08-17T08:43:39;26.00;99.40
11246;DHT22;59870;50.106;8.580;2023-08-17T08:46:07;26.10;98.70
11246;DHT22;59870;50.106;8.580;2023-08-17T08:48:35;26.40;98.40
11246;DHT22;59870;50.106;8.580;2023-08-17T08:51:08;26.60;97.60
11246;DHT22;59870;50.106;8.580;2023-08-17T08:53:38;27.10;98.10
11246;DHT22;59870;50.106;8.580;2023-08-17T08:56:11;27.30;97.10
11246;DHT22;59870;50.106;8.580;2023-08-17T08:58:43;27.20;96.90
11246;DHT22;59870;50.106;8.580;2023-08-17T09:01:12;27.40;96.80
11246;DHT22;59870;50.106;8.580;2023-08-17T09:03:40;27.60;96.00
11246;DHT22;59870;50.106;8.580;2023-08-17T09:06:09;27.90;96.10
11246;DHT22;59870;50.106;8.580;2023-08-17T09:08:38;28.00;95.20
11246;DHT22;59870;50.106;8.580;2023-08-17T09:11:06;28.10;95.00
11246;DHT22;59870;50.106;8.580;2023-08-17T09:13:34;28.30;94.80
11246;DHT22;59870;50.106;8.580;2023-08-17T09:16:01;28.60;94.30
11246;DHT22;59870;50.106;8.580;2023-08-17T09:18:34;28.50;93.60
11246;DHT22;59870;50.106;8.580;2023-08-17T09:21:06;28.50;93.10
11246;DHT22;59870;50.106;8.580;2023-08-17T09:23:34;28.90;93.40
11246;DHT22;59870;50.106;8.580;2023-08-17T09:26:10;28.80;92.80
11246;DHT22;59870;50.106;8.580;2023-08-17T09:28:39;29.20;92.90
11246;DHT22;59870;50.106;8.580;2023-08-17T09:31:07;29.60;92.40
11246;DHT22;59870;50.106;8.580;2023-08-17T09:33:35;29.70;91.80
11246;DHT22;59870;50.106;8.580;2023-08-17T09:36:03;29.90;91.80
11246;DHT22;59870;50.106;8.580;2023-08-17T09:38:30;30.00;91.90
11246;DHT22;59870;50.106;8.580;2023-08-17T09:40:58;30.00;91.10
11246;DHT22;59870;50.106;8.580;2023-08-17T09:43:26;30.20;91.00
11246;DHT22;59870;50.106;8.580;2023-08-17T09:45:56;30.50;90.10
11246;DHT22;59870;50.106;8.580;2023-08-17T09:48:25;30.90;90.10
11246;DHT22;59870;50.106;8.580;2023-08-17T09:50:59;30.90;90.30
11246;DHT22;59870;50.106;8.580;2023-08-17T09:53:34;31.10;87.50
11246;DHT22;59870;50.106;8.580;2023-08-17T09:56:05;31.20;88.70
11246;DHT22;59870;50.106;8.580;2023-08-17T09:58:35;31.30;87.60
11246;DHT22;59870;50.106;8.580;2023-08-17T10:01:04;31.40;88.00
11246;DHT22;59870;50.106;8.580;2023-08-17T10:03:33;31.50;85.80
11246;DHT22;59870;50.106;8.580;2023-08-17T10:06:06;31.80;87.70
11246;DHT22;59870;50.106;8.580;2023-08-17T10:08:42;31.30;84.70
11246;DHT22;59870;50.106;8.580;2023-08-17T10:11:12;31.20;86.20
11246;DHT22;59870;50.106;8.580;2023-08-17T10:16:29;31.00;86.60
11246;DHT22;59870;50.106;8.580;2023-08-17T10:21:44;30.80;90.70
11246;DHT22;59870;50.106;8.580;2023-08-17T10:24:14;30.80;88.50
11246;DHT22;59870;50.106;8.580;2023-08-17T10:26:41;30.80;88.10
11246;DHT22;59870;50.106;8.580;2023-08-17T10:29:10;30.80;87.40
11246;DHT22;59870;50.106;8.580;2023-08-17T10:31:46;31.10;86.80
11246;DHT22;59870;50.106;8.580;2023-08-17T10:34:15;30.80;88.30
11246;DHT22;59870;50.106;8.580;2023-08-17T10:36:42;30.80;90.00
11246;DHT22;59870;50.106;8.580;2023-08-17T10:39:21;31.00;89.60
11246;DHT22;59870;50.106;8.580;2023-08-17T10:41:53;30.80;90.20
11246;DHT22;59870;50.106;8.580;2023-08-17T10:44:48;31.10;90.00
11246;DHT22;59870;50.106;8.580;2023-08-17T10:47:32;30.80;89.90
11246;DHT22;59870;50.106;8.580;2023-08-17T10:50:10;30.90;89.60
11246;DHT22;59870;50.106;8.580;2023-08-17T10:52:48;30.90;89.60
11246;DHT22;59870;50.106;8.580;2023-08-17T10:55:36;31.10;90.80
11246;DHT22;59870;50.106;8.580;2023-08-17T10:58:04;30.90;90.20
11246;DHT22;59870;50.106;8.580;2023-08-17T11:00:34;31.00;88.60
11246;DHT22;59870;50.106;8.580;2023-08-17T11:05:50;30.90;86.40
11246;DHT22;59870;50.106;8.580;2023-08-17T11:08:27;30.80;86.30
11246;DHT22;59870;50.106;8.580;2023-08-17T11:11:06;30.80;86.20
11246;DHT22;59870;50.106;8.580;2023-08-17T11:13:35;30.70;87.20
11246;DHT22;59870;50.106;8.580;2023-08-17T11:16:04;30.70;86.40
11246;DHT22;59870;50.106;8.580;2023-08-17T11:18:32;30.70;86.30
11246;DHT22;59870;50.106;8.580;2023-08-17T11:21:02;30.70;85.90
11246;DHT22;59870;50.106;8.580;2023-08-17T11:23:31;30.70;86.00
11246;DHT22;59870;50.106;8.580;2023-08-17T11:26:02;30.60;86.50
11246;DHT22;59870;50.106;8.580;2023-08-17T11:28:31;30.70;86.80
11246;DHT22;59870;50.106;8.580;2023-08-17T11:31:10;30.80;85.50
11246;DHT22;59870;50.106;8.580;2023-08-17T11:33:38;30.60;85.60
11246;DHT22;59870;50.106;8.580;2023-08-17T11:36:09;30.50;86.60
11246;DHT22;59870;50.106;8.580;2023-08-17T11:38:41;30.50;87.20
11246;DHT22;59870;50.106;8.580;2023-08-17T11:41:09;30.30;87.60
11246;DHT22;59870;50.106;8.580;2023-08-17T11:43:44;30.30;89.80
11246;DHT22;59870;50.106;8.580;2023-08-17T11:46:12;30.40;89.20
11246;DHT22;59870;50.106;8.580;2023-08-17T11:48:40;30.30;88.90
11246;DHT22;59870;50.106;8.580;2023-08-17T11:51:08;30.40;86.80
11246;DHT22;59870;50.106;8.580;2023-08-17T11:53:36;30.40;86.30
11246;DHT22;59870;50.106;8.580;2023-08-17T11:56:08;30.30;85.40
11246;DHT22;59870;50.106;8.580;2023-08-17T11:58:46;30.40;85.60
11246;DHT22;59870;50.106;8.580;2023-08-17T12:01:16;30.60;86.10
11246;DHT22;59870;50.106;8.580;2023-08-17T12:03:45;30.30;86.20
11246;DHT22;59870;50.106;8.580;2023-08-17T12:06:13;30.20;90.00
11246;DHT22;59870;50.106;8.580;2023-08-17T12:08:47;30.40;87.00
11246;DHT22;59870;50.106;8.580;2023-08-17T12:11:16;30.40;86.60
11246;DHT22;59870;50.106;8.580;2023-08-17T12:13:51;30.40;88.20
11246;DHT22;59870;50.106;8.580;2023-08-17T12:16:22;30.60;88.40
11246;DHT22;59870;50.106;8.580;2023-08-17T12:18:52;30.60;88.40
11246;DHT22;59870;50.106;8.580;2023-08-17T12:21:21;30.60;88.00
11246;DHT22;59870;50.106;8.580;2023-08-17T12:23:49;30.50;89.20
11246;DHT22;59870;50.106;8.580;2023-08-17T12:26:20;30.60;88.40
11246;DHT22;59870;50.106;8.580;2023-08-17T12:28:51;30.70;89.60
11246;DHT22;59870;50.106;8.580;2023-08-17T12:31:22;30.90;89.80
11246;DHT22;59870;50.106;8.580;2023-08-17T12:33:51;30.80;89.40
11246;DHT22;59870;50.106;8.580;2023-08-17T12:36:21;30.80;90.10
11246;DHT22;59870;50.106;8.580;2023-08-17T12:38:49;30.90;90.00
11246;DHT22;59870;50.106;8.580;2023-08-17T12:41:17;31.00;88.70
11246;DHT22;59870;50.106;8.580;2023-08-17T12:43:45;31.10;87.50
11246;DHT22;59870;50.106;8.580;2023-08-17T12:46:12;31.10;87.00
11246;DHT22;59870;50.106;8.580;2023-08-17T12:48:39;31.20;87.50
11246;DHT22;59870;50.106;8.580;2023-08-17T12:51:07;31.50;87.80
11246;DHT22;59870;50.106;8.580;2023-08-17T12:53:34;31.40;85.90
11246;DHT22;59870;50.106;8.580;2023-08-17T12:56:02;31.40;85.90
11246;DHT22;59870;50.106;8.580;2023-08-17T12:58:29;31.40;86.70
11246;DHT22;59870;50.106;8.580;2023-08-17T13:00:57;31.40;85.00
11246;DHT22;59870;50.106;8.580;2023-08-17T13:03:24;31.50;84.20
11246;DHT22;59870;50.106;8.580;2023-08-17T13:05:55;31.50;83.50
11246;DHT22;59870;50.106;8.580;2023-08-17T13:08:22;31.70;82.40
11246;DHT22;59870;50.106;8.580;2023-08-17T13:10:50;31.60;80.00
11246;DHT22;59870;50.106;8.580;2023-08-17T13:13:17;31.60;79.80
11246;DHT22;59870;50.106;8.580;2023-08-17T13:15:45;31.60;77.60
11246;DHT22;59870;50.106;8.580;2023-08-17T13:18:12;31.80;79.10
11246;DHT22;59870;50.106;8.580;2023-08-17T13:20:40;31.60;79.20
11246;DHT22;59870;50.106;8.580;2023-08-17T13:23:07;31.60;81.30
11246;DHT22;59870;50.106;8.580;2023-08-17T13:25:35;31.60;79.40
11246;DHT22;59870;50.106;8.580;2023-08-17T13:28:02;31.60;82.00
11246;DHT22;59870;50.106;8.580;2023-08-17T13:30:33;31.50;83.70
11246;DHT22;59870;50.106;8.580;2023-08-17T13:33:00;31.50;85.10
11246;DHT22;59870;50.106;8.580;2023-08-17T13:35:27;31.70;84.50
11246;DHT22;59870;50.106;8.580;2023-08-17T13:37:55;31.70;79.10
11246;DHT22;59870;50.106;8.580;2023-08-17T13:40:25;31.70;79.40
11246;DHT22;59870;50.106;8.580;2023-08-17T13:42:52;31.60;78.10
11246;DHT22;59870;50.106;8.580;2023-08-17T13:45:20;31.90;77.00
11246;DHT22;59870;50.106;8.580;2023-08-17T13:47:47;31.70;77.00
11246;DHT22;59870;50.106;8.580;2023-08-17T13:50:15;31.70;76.20
11246;DHT22;59870;50.106;8.580;2023-08-17T13:52:42;31.70;77.00
11246;DHT22;59870;50.106;8.580;2023-08-17T13:55:10;31.90;77.70
11246;DHT22;59870;50.106;8.580;2023-08-17T13:57:37;31.90;76.00
11246;DHT22;59870;50.106;8.580;2023-08-17T14:00:05;31.90;75.00
11246;DHT22;59870;50.106;8.580;2023-08-17T14:02:34;32.00;74.90
11246;DHT22;59870;50.106;8.580;2023-08-17T14:05:05;32.20;74.90
11246;DHT22;59870;50.106;8.580;2023-08-17T14:07:33;31.90;75.00
11246;DHT22;59870;50.106;8.580;2023-08-17T14:10:00;31.90;75.90
11246;DHT22;59870;50.106;8.580;2023-08-17T14:12:35;32.10;76.20
11246;DHT22;59870;50.106;8.580;2023-08-17T14:15:03;31.90;76.90
11246;DHT22;59870;50.106;8.580;2023-08-17T14:17:31;31.80;77.60
11246;DHT22;59870;50.106;8.580;2023-08-17T14:19:59;31.90;77.10
11246;DHT22;59870;50.106;8.580;2023-08-17T14:22:27;31.80;77.00
11246;DHT22;59870;50.106;8.580;2023-08-17T14:24:55;31.80;76.40
11246;DHT22;59870;50.106;8.580;2023-08-17T14:27:22;31.80;76.10
11246;DHT22;59870;50.106;8.580;2023-08-17T14:29:50;31.80;76.30
11246;DHT22;59870;50.106;8.580;2023-08-17T14:32:18;31.80;76.30
11246;DHT22;59870;50.106;8.580;2023-08-17T14:34:45;31.90;75.50
11246;DHT22;59870;50.106;8.580;2023-08-17T14:37:12;31.80;77.00
11246;DHT22;59870;50.106;8.580;2023-08-17T14:39:40;31.80;77.40
11246;DHT22;59870;50.106;8.580;2023-08-17T14:42:07;32.10;76.80
11246;DHT22;59870;50.106;8.580;2023-08-17T14:44:35;31.80;78.40
11246;DHT22;59870;50.106;8.580;2023-08-17T14:47:05;32.00;78.80
11246;DHT22;59870;50.106;8.580;2023-08-17T14:49:33;31.80;77.00
11246;DHT22;59870;50.106;8.580;2023-08-17T14:52:00;31.80;76.90
11246;DHT22;59870;50.106;8.580;2023-08-17T14:54:27;31.80;78.00
11246;DHT22;59870;50.106;8.580;2023-08-17T14:56:59;31.80;79.10
11246;DHT22;59870;50.106;8.580;2023-08-17T14:59:27;31.90;78.60
11246;DHT22;59870;50.106;8.580;2023-08-17T15:01:54;32.20;78.00
11246;DHT22;59870;50.106;8.580;2023-08-17T15:04:26;31.80;78.80
11246;DHT22;59870;50.106;8.580;2023-08-17T15:06:53;31.80;79.00
11246;DHT22;59870;50.106;8.580;2023-08-17T15:09:20;31.80;79.60
11246;DHT22;59870;50.106;8.580;2023-08-17T15:11:48;32.00;80.30
11246;DHT22;59870;50.106;8.580;2023-08-17T15:14:17;31.90;80.60
11246;DHT22;59870;50.106;8.580;2023-08-17T15:16:44;31.80;79.80
11246;DHT22;59870;50.106;8.580;2023-08-17T15:19:12;31.50;80.30
11246;DHT22;59870;50.106;8.580;2023-08-17T15:21:42;31.50;80.90
11246;DHT22;59870;50.106;8.580;2023-08-17T15:24:09;31.30;81.40
11246;DHT22;59870;50.106;8.580;2023-08-17T15:26:37;31.30;81.70
11246;DHT22;59870;50.106;8.580;2023-08-17T15:29:04;31.30;82.20
11246;DHT22;59870;50.106;8.580;2023-08-17T15:31:34;31.30;82.50
11246;DHT22;59870;50.106;8.580;2023-08-17T15:34:03;31.50;83.00
11246;DHT22;59870;50.106;8.580;2023-08-17T15:36:36;31.20;82.60
11246;DHT22;59870;50.106;8.580;2023-08-17T15:39:04;31.30;82.10
11246;DHT22;59870;50.106;8.580;2023-08-17T15:41:32;31.30;82.80
11246;DHT22;59870;50.106;8.580;2023-08-17T15:43:59;31.40;83.00
11246;DHT22;59870;50.106;8.580;2023-08-17T15:46:26;31.60;82.10
11246;DHT22;59870;50.106;8.580;2023-08-17T15:48:56;31.60;82.50
11246;DHT22;59870;50.106;8.580;2023-08-17T15:51:23;31.40;81.70